Bermuda Run, North Carolina
Current Conditions -  °F | °C
As of 3:54 AM on Friday 31 Oct 2014 (Local Time) from KINT Reporting Station
Few Clouds Few Clouds  
Wind Chill: 40°   Ceiling: Unl
Heat Index: 44°   Visibility: 10mi
Dew Point: 35°   Wind: 8mph
Humidity: 71%   Direction: 30°NNE
Pressure: 30"   Gusts: NA
Location:  36.0107°N, 80.4503°W
Report Text: KINT 310754Z AUTO 03007KT 10SM FEW060 07/02 A3000 RMK AO2 SLP154 T00670017
Loading
Personal Weather Stations






























Interactive Weather Map
Tropical Storm Tracking
New forecast layout! Learn more

10-Day Weather Forecast

Advertisements
Track Severe Weather on mobile